Terminal Aerodrome Forecast
Issued by NWS

Home | Current Version | Previous Version | Text Only | Print | Product List | Glossary Off
Versions: 1 2 3 4 5 6 7 8 9 10 11 12 13 14 15

000
FTUS43 KGRB 292100 AAA
TAFATW
TAF AMD
KATW 292123Z 2921/3018 02012G18KT P6SM OVC009
     FM300000 02010G18KT P6SM BKN018
     FM300700 36010KT P6SM BKN012
     FM301400 03008KT P6SM BKN020=

USA.gov is the U.S. government's official web portal to all federal, state and local government web resources and services.